sensor_id;sensor_type;location;lat;lon;timestamp;P1;durP1;ratioP1;P2;durP2;ratioP2
26963;SDS011;14521;48.148;-1.656;2023-10-31T00:01:54;27.17;;;17.92;;
26963;SDS011;14521;48.148;-1.656;2023-10-31T00:05:17;25.70;;;17.52;;
26963;SDS011;14521;48.148;-1.656;2023-10-31T00:08:42;26.48;;;17.63;;
26963;SDS011;14521;48.148;-1.656;2023-10-31T00:12:04;24.08;;;16.85;;
26963;SDS011;14521;48.148;-1.656;2023-10-31T00:15:27;28.75;;;15.38;;
26963;SDS011;14521;48.148;-1.656;2023-10-31T00:18:52;24.40;;;16.13;;
26963;SDS011;14521;48.148;-1.656;2023-10-31T00:22:14;25.70;;;16.58;;
26963;SDS011;14521;48.148;-1.656;2023-10-31T00:25:36;24.08;;;15.25;;
26963;SDS011;14521;48.148;-1.656;2023-10-31T00:28:58;25.17;;;16.05;;
26963;SDS011;14521;48.148;-1.656;2023-10-31T00:32:21;21.13;;;14.63;;
26963;SDS011;14521;48.148;-1.656;2023-10-31T00:35:43;22.42;;;15.20;;
26963;SDS011;14521;48.148;-1.656;2023-10-31T00:39:05;19.98;;;13.10;;
26963;SDS011;14521;48.148;-1.656;2023-10-31T00:42:27;22.83;;;14.85;;
26963;SDS011;14521;48.148;-1.656;2023-10-31T00:45:50;21.20;;;13.02;;
26963;SDS011;14521;48.148;-1.656;2023-10-31T00:49:12;19.60;;;13.30;;
26963;SDS011;14521;48.148;-1.656;2023-10-31T00:52:34;18.20;;;12.63;;
26963;SDS011;14521;48.148;-1.656;2023-10-31T00:55:58;17.27;;;12.20;;
26963;SDS011;14521;48.148;-1.656;2023-10-31T00:59:20;18.05;;;11.93;;
26963;SDS011;14521;48.148;-1.656;2023-10-31T01:02:43;15.65;;;11.35;;
26963;SDS011;14521;48.148;-1.656;2023-10-31T01:06:06;16.48;;;10.95;;
26963;SDS011;14521;48.148;-1.656;2023-10-31T01:09:28;15.65;;;11.05;;
26963;SDS011;14521;48.148;-1.656;2023-10-31T01:12:50;17.50;;;10.80;;
26963;SDS011;14521;48.148;-1.656;2023-10-31T01:16:13;16.80;;;9.85;;
26963;SDS011;14521;48.148;-1.656;2023-10-31T01:19:35;18.05;;;9.75;;
26963;SDS011;14521;48.148;-1.656;2023-10-31T01:22:57;13.20;;;9.80;;
26963;SDS011;14521;48.148;-1.656;2023-10-31T01:26:20;15.10;;;8.82;;
26963;SDS011;14521;48.148;-1.656;2023-10-31T01:29:42;15.10;;;9.52;;
26963;SDS011;14521;48.148;-1.656;2023-10-31T01:33:04;14.35;;;9.00;;
26963;SDS011;14521;48.148;-1.656;2023-10-31T01:36:26;13.23;;;8.90;;
26963;SDS011;14521;48.148;-1.656;2023-10-31T01:39:49;11.90;;;8.65;;
26963;SDS011;14521;48.148;-1.656;2023-10-31T01:43:11;10.63;;;8.52;;
26963;SDS011;14521;48.148;-1.656;2023-10-31T01:46:33;11.98;;;8.07;;
26963;SDS011;14521;48.148;-1.656;2023-10-31T01:49:56;14.75;;;8.57;;
26963;SDS011;14521;48.148;-1.656;2023-10-31T01:53:19;9.48;;;7.93;;
26963;SDS011;14521;48.148;-1.656;2023-10-31T01:56:41;13.40;;;8.38;;
26963;SDS011;14521;48.148;-1.656;2023-10-31T02:00:05;11.50;;;7.20;;
26963;SDS011;14521;48.148;-1.656;2023-10-31T02:03:34;10.10;;;7.10;;
26963;SDS011;14521;48.148;-1.656;2023-10-31T02:06:56;10.82;;;7.43;;
26963;SDS011;14521;48.148;-1.656;2023-10-31T02:10:19;8.18;;;6.75;;
26963;SDS011;14521;48.148;-1.656;2023-10-31T02:13:41;10.40;;;7.13;;
26963;SDS011;14521;48.148;-1.656;2023-10-31T02:17:03;7.28;;;6.28;;
26963;SDS011;14521;48.148;-1.656;2023-10-31T02:20:25;8.77;;;6.40;;
26963;SDS011;14521;48.148;-1.656;2023-10-31T02:27:20;7.40;;;6.20;;
26963;SDS011;14521;48.148;-1.656;2023-10-31T02:30:43;9.07;;;6.35;;
26963;SDS011;14521;48.148;-1.656;2023-10-31T02:34:05;8.27;;;5.78;;
26963;SDS011;14521;48.148;-1.656;2023-10-31T02:37:27;7.28;;;5.60;;
26963;SDS011;14521;48.148;-1.656;2023-10-31T02:40:50;9.15;;;6.38;;
26963;SDS011;14521;48.148;-1.656;2023-10-31T02:44:14;7.20;;;5.47;;
26963;SDS011;14521;48.148;-1.656;2023-10-31T02:47:37;7.90;;;5.75;;
26963;SDS011;14521;48.148;-1.656;2023-10-31T02:50:59;6.65;;;5.53;;
26963;SDS011;14521;48.148;-1.656;2023-10-31T02:54:21;7.55;;;6.03;;
26963;SDS011;14521;48.148;-1.656;2023-10-31T02:57:44;6.40;;;5.00;;
26963;SDS011;14521;48.148;-1.656;2023-10-31T03:01:06;6.60;;;4.95;;
26963;SDS011;14521;48.148;-1.656;2023-10-31T03:04:28;6.32;;;4.95;;
26963;SDS011;14521;48.148;-1.656;2023-10-31T03:07:50;6.18;;;4.75;;
26963;SDS011;14521;48.148;-1.656;2023-10-31T03:11:21;8.23;;;4.85;;
26963;SDS011;14521;48.148;-1.656;2023-10-31T03:14:44;6.60;;;4.90;;
26963;SDS011;14521;48.148;-1.656;2023-10-31T03:18:06;5.07;;;4.57;;
26963;SDS011;14521;48.148;-1.656;2023-10-31T03:21:28;6.35;;;5.10;;
26963;SDS011;14521;48.148;-1.656;2023-10-31T03:24:51;4.68;;;4.25;;
26963;SDS011;14521;48.148;-1.656;2023-10-31T03:28:19;5.55;;;4.85;;
26963;SDS011;14521;48.148;-1.656;2023-10-31T03:31:44;5.43;;;4.30;;
26963;SDS011;14521;48.148;-1.656;2023-10-31T03:35:06;5.75;;;4.55;;
26963;SDS011;14521;48.148;-1.656;2023-10-31T03:38:29;4.65;;;4.20;;
26963;SDS011;14521;48.148;-1.656;2023-10-31T03:41:52;5.18;;;4.25;;
26963;SDS011;14521;48.148;-1.656;2023-10-31T03:45:18;4.88;;;3.75;;
26963;SDS011;14521;48.148;-1.656;2023-10-31T03:48:41;4.00;;;3.70;;
26963;SDS011;14521;48.148;-1.656;2023-10-31T03:52:03;4.50;;;4.10;;
26963;SDS011;14521;48.148;-1.656;2023-10-31T03:55:26;4.80;;;3.78;;
26963;SDS011;14521;48.148;-1.656;2023-10-31T03:58:48;3.97;;;3.28;;
26963;SDS011;14521;48.148;-1.656;2023-10-31T04:02:11;6.47;;;3.55;;
26963;SDS011;14521;48.148;-1.656;2023-10-31T04:05:33;3.42;;;3.13;;
26963;SDS011;14521;48.148;-1.656;2023-10-31T04:08:56;4.75;;;3.08;;
26963;SDS011;14521;48.148;-1.656;2023-10-31T04:12:18;4.15;;;3.47;;
26963;SDS011;14521;48.148;-1.656;2023-10-31T04:15:40;3.40;;;3.10;;
26963;SDS011;14521;48.148;-1.656;2023-10-31T04:19:02;5.40;;;3.15;;
26963;SDS011;14521;48.148;-1.656;2023-10-31T04:22:25;3.53;;;3.08;;
26963;SDS011;14521;48.148;-1.656;2023-10-31T04:25:47;3.55;;;3.25;;
26963;SDS011;14521;48.148;-1.656;2023-10-31T04:29:09;3.55;;;3.25;;
26963;SDS011;14521;48.148;-1.656;2023-10-31T04:32:31;4.30;;;2.72;;
26963;SDS011;14521;48.148;-1.656;2023-10-31T04:35:54;4.85;;;2.63;;
26963;SDS011;14521;48.148;-1.656;2023-10-31T04:39:16;5.40;;;3.22;;
26963;SDS011;14521;48.148;-1.656;2023-10-31T04:42:39;2.90;;;2.67;;
26963;SDS011;14521;48.148;-1.656;2023-10-31T04:46:02;3.58;;;2.40;;
26963;SDS011;14521;48.148;-1.656;2023-10-31T04:49:24;3.17;;;2.50;;
26963;SDS011;14521;48.148;-1.656;2023-10-31T04:52:47;2.88;;;2.40;;
26963;SDS011;14521;48.148;-1.656;2023-10-31T04:56:12;4.85;;;2.80;;
26963;SDS011;14521;48.148;-1.656;2023-10-31T04:59:36;3.10;;;2.78;;
26963;SDS011;14521;48.148;-1.656;2023-10-31T05:02:59;2.80;;;2.58;;
26963;SDS011;14521;48.148;-1.656;2023-10-31T05:06:23;3.00;;;2.00;;
26963;SDS011;14521;48.148;-1.656;2023-10-31T05:09:45;4.13;;;2.10;;
26963;SDS011;14521;48.148;-1.656;2023-10-31T05:13:08;5.03;;;1.88;;
26963;SDS011;14521;48.148;-1.656;2023-10-31T05:16:30;2.22;;;2.00;;
26963;SDS011;14521;48.148;-1.656;2023-10-31T05:19:52;4.55;;;1.80;;
26963;SDS011;14521;48.148;-1.656;2023-10-31T05:23:14;2.70;;;1.98;;
26963;SDS011;14521;48.148;-1.656;2023-10-31T05:26:37;2.17;;;1.88;;
26963;SDS011;14521;48.148;-1.656;2023-10-31T05:30:01;2.05;;;1.95;;
26963;SDS011;14521;48.148;-1.656;2023-10-31T05:33:24;2.20;;;2.03;;
26963;SDS011;14521;48.148;-1.656;2023-10-31T05:36:46;2.42;;;1.70;;
26963;SDS011;14521;48.148;-1.656;2023-10-31T05:40:09;3.03;;;1.80;;
26963;SDS011;14521;48.148;-1.656;2023-10-31T05:43:32;2.08;;;1.58;;
26963;SDS011;14521;48.148;-1.656;2023-10-31T05:46:55;1.70;;;1.52;;
26963;SDS011;14521;48.148;-1.656;2023-10-31T05:50:17;2.55;;;1.48;;
26963;SDS011;14521;48.148;-1.656;2023-10-31T05:53:40;2.13;;;1.42;;
26963;SDS011;14521;48.148;-1.656;2023-10-31T05:57:03;2.33;;;1.30;;
26963;SDS011;14521;48.148;-1.656;2023-10-31T06:00:26;2.90;;;1.73;;
26963;SDS011;14521;48.148;-1.656;2023-10-31T06:03:48;1.50;;;1.40;;
26963;SDS011;14521;48.148;-1.656;2023-10-31T06:07:10;2.25;;;1.55;;
26963;SDS011;14521;48.148;-1.656;2023-10-31T06:10:33;3.00;;;1.20;;
26963;SDS011;14521;48.148;-1.656;2023-10-31T06:13:56;1.42;;;1.17;;
26963;SDS011;14521;48.148;-1.656;2023-10-31T06:17:18;1.30;;;1.20;;
26963;SDS011;14521;48.148;-1.656;2023-10-31T06:20:40;2.75;;;1.15;;
26963;SDS011;14521;48.148;-1.656;2023-10-31T06:24:03;1.42;;;1.27;;
26963;SDS011;14521;48.148;-1.656;2023-10-31T06:27:25;1.92;;;0.93;;
26963;SDS011;14521;48.148;-1.656;2023-10-31T06:30:47;1.40;;;1.27;;
26963;SDS011;14521;48.148;-1.656;2023-10-31T06:34:10;1.45;;;1.10;;
26963;SDS011;14521;48.148;-1.656;2023-10-31T06:37:32;2.25;;;0.73;;
26963;SDS011;14521;48.148;-1.656;2023-10-31T06:40:54;1.27;;;0.90;;
26963;SDS011;14521;48.148;-1.656;2023-10-31T06:44:18;1.60;;;1.00;;
26963;SDS011;14521;48.148;-1.656;2023-10-31T06:47:41;3.33;;;1.77;;
26963;SDS011;14521;48.148;-1.656;2023-10-31T06:51:03;1.23;;;1.10;;
26963;SDS011;14521;48.148;-1.656;2023-10-31T06:54:26;3.33;;;1.17;;
26963;SDS011;14521;48.148;-1.656;2023-10-31T06:57:48;1.92;;;1.20;;
26963;SDS011;14521;48.148;-1.656;2023-10-31T07:01:11;4.13;;;1.15;;
26963;SDS011;14521;48.148;-1.656;2023-10-31T07:04:34;2.42;;;1.30;;
26963;SDS011;14521;48.148;-1.656;2023-10-31T07:07:56;6.47;;;1.27;;
26963;SDS011;14521;48.148;-1.656;2023-10-31T07:11:18;10.60;;;1.40;;
26963;SDS011;14521;48.148;-1.656;2023-10-31T07:14:41;3.50;;;1.05;;
26963;SDS011;14521;48.148;-1.656;2023-10-31T07:18:04;5.13;;;1.17;;
26963;SDS011;14521;48.148;-1.656;2023-10-31T07:21:29;1.80;;;1.10;;
26963;SDS011;14521;48.148;-1.656;2023-10-31T07:24:51;2.28;;;1.40;;
26963;SDS011;14521;48.148;-1.656;2023-10-31T07:28:13;3.00;;;1.23;;
26963;SDS011;14521;48.148;-1.656;2023-10-31T07:31:36;3.22;;;1.45;;
26963;SDS011;14521;48.148;-1.656;2023-10-31T07:35:00;4.45;;;1.30;;
26963;SDS011;14521;48.148;-1.656;2023-10-31T07:38:22;1.58;;;1.10;;
26963;SDS011;14521;48.148;-1.656;2023-10-31T07:41:45;4.60;;;1.50;;
26963;SDS011;14521;48.148;-1.656;2023-10-31T07:45:07;2.45;;;1.65;;
26963;SDS011;14521;48.148;-1.656;2023-10-31T07:48:30;1.58;;;0.98;;
26963;SDS011;14521;48.148;-1.656;2023-10-31T07:51:53;2.80;;;0.82;;
26963;SDS011;14521;48.148;-1.656;2023-10-31T07:55:15;5.28;;;0.82;;
26963;SDS011;14521;48.148;-1.656;2023-10-31T07:58:37;5.25;;;0.82;;
26963;SDS011;14521;48.148;-1.656;2023-10-31T08:02:00;2.72;;;0.85;;
26963;SDS011;14521;48.148;-1.656;2023-10-31T08:05:22;2.80;;;1.15;;
26963;SDS011;14521;48.148;-1.656;2023-10-31T08:08:45;2.83;;;0.95;;
26963;SDS011;14521;48.148;-1.656;2023-10-31T08:12:07;2.28;;;0.65;;
26963;SDS011;14521;48.148;-1.656;2023-10-31T08:15:30;1.73;;;1.00;;
26963;SDS011;14521;48.148;-1.656;2023-10-31T08:18:52;2.03;;;0.80;;
26963;SDS011;14521;48.148;-1.656;2023-10-31T08:22:14;1.88;;;0.80;;
26963;SDS011;14521;48.148;-1.656;2023-10-31T08:25:36;2.55;;;0.90;;
26963;SDS011;14521;48.148;-1.656;2023-10-31T08:28:59;7.20;;;0.98;;
26963;SDS011;14521;48.148;-1.656;2023-10-31T08:32:21;2.10;;;0.73;;
26963;SDS011;14521;48.148;-1.656;2023-10-31T08:35:46;1.00;;;0.75;;
26963;SDS011;14521;48.148;-1.656;2023-10-31T08:39:09;1.40;;;0.75;;
26963;SDS011;14521;48.148;-1.656;2023-10-31T08:42:33;5.85;;;0.70;;
26963;SDS011;14521;48.148;-1.656;2023-10-31T08:45:55;4.88;;;0.93;;
26963;SDS011;14521;48.148;-1.656;2023-10-31T08:49:18;2.53;;;1.00;;
26963;SDS011;14521;48.148;-1.656;2023-10-31T08:52:40;3.38;;;0.85;;
26963;SDS011;14521;48.148;-1.656;2023-10-31T08:56:02;6.10;;;0.85;;
26963;SDS011;14521;48.148;-1.656;2023-10-31T08:59:25;2.78;;;0.93;;
26963;SDS011;14521;48.148;-1.656;2023-10-31T09:02:47;3.80;;;0.80;;
26963;SDS011;14521;48.148;-1.656;2023-10-31T09:06:10;2.80;;;0.77;;
26963;SDS011;14521;48.148;-1.656;2023-10-31T09:09:32;2.53;;;0.90;;
26963;SDS011;14521;48.148;-1.656;2023-10-31T09:12:54;2.55;;;0.50;;
26963;SDS011;14521;48.148;-1.656;2023-10-31T09:16:17;5.28;;;0.60;;
26963;SDS011;14521;48.148;-1.656;2023-10-31T09:19:39;3.80;;;1.20;;
26963;SDS011;14521;48.148;-1.656;2023-10-31T09:23:01;4.25;;;0.75;;
26963;SDS011;14521;48.148;-1.656;2023-10-31T09:26:24;2.88;;;0.80;;
26963;SDS011;14521;48.148;-1.656;2023-10-31T09:29:46;2.17;;;0.70;;
26963;SDS011;14521;48.148;-1.656;2023-10-31T09:33:08;2.78;;;0.77;;
26963;SDS011;14521;48.148;-1.656;2023-10-31T09:36:31;3.33;;;0.70;;
26963;SDS011;14521;48.148;-1.656;2023-10-31T09:39:55;2.35;;;0.88;;
26963;SDS011;14521;48.148;-1.656;2023-10-31T09:43:18;4.13;;;0.73;;
26963;SDS011;14521;48.148;-1.656;2023-10-31T09:46:40;3.95;;;0.77;;
26963;SDS011;14521;48.148;-1.656;2023-10-31T09:50:03;3.05;;;0.90;;
26963;SDS011;14521;48.148;-1.656;2023-10-31T09:53:26;4.70;;;0.82;;
26963;SDS011;14521;48.148;-1.656;2023-10-31T09:56:49;1.67;;;0.60;;
26963;SDS011;14521;48.148;-1.656;2023-10-31T10:00:12;3.10;;;0.80;;
26963;SDS011;14521;48.148;-1.656;2023-10-31T10:03:34;3.65;;;1.05;;
26963;SDS011;14521;48.148;-1.656;2023-10-31T10:06:58;2.22;;;0.88;;
26963;SDS011;14521;48.148;-1.656;2023-10-31T10:10:21;2.55;;;0.80;;
26963;SDS011;14521;48.148;-1.656;2023-10-31T10:13:44;1.20;;;0.60;;
26963;SDS011;14521;48.148;-1.656;2023-10-31T10:17:22;3.67;;;0.77;;
26963;SDS011;14521;48.148;-1.656;2023-10-31T10:20:58;4.63;;;0.80;;
26963;SDS011;14521;48.148;-1.656;2023-10-31T10:24:22;2.58;;;0.70;;
26963;SDS011;14521;48.148;-1.656;2023-10-31T10:27:46;2.33;;;0.68;;
26963;SDS011;14521;48.148;-1.656;2023-10-31T10:31:09;2.40;;;0.73;;
26963;SDS011;14521;48.148;-1.656;2023-10-31T10:34:36;2.67;;;0.77;;
26963;SDS011;14521;48.148;-1.656;2023-10-31T10:37:59;3.00;;;0.88;;
26963;SDS011;14521;48.148;-1.656;2023-10-31T10:41:26;2.47;;;1.00;;
26963;SDS011;14521;48.148;-1.656;2023-10-31T10:44:50;5.15;;;0.80;;
26963;SDS011;14521;48.148;-1.656;2023-10-31T10:48:17;2.92;;;0.60;;
26963;SDS011;14521;48.148;-1.656;2023-10-31T10:55:39;4.50;;;0.60;;
26963;SDS011;14521;48.148;-1.656;2023-10-31T10:59:15;4.85;;;0.70;;
26963;SDS011;14521;48.148;-1.656;2023-10-31T11:02:41;2.20;;;0.80;;
26963;SDS011;14521;48.148;-1.656;2023-10-31T11:06:05;2.63;;;0.90;;
26963;SDS011;14521;48.148;-1.656;2023-10-31T11:09:29;3.25;;;0.70;;
26963;SDS011;14521;48.148;-1.656;2023-10-31T11:12:52;1.00;;;0.52;;
26963;SDS011;14521;48.148;-1.656;2023-10-31T11:16:23;3.17;;;0.80;;
26963;SDS011;14521;48.148;-1.656;2023-10-31T11:19:56;2.22;;;0.68;;
26963;SDS011;14521;48.148;-1.656;2023-10-31T11:23:19;2.72;;;0.70;;
26963;SDS011;14521;48.148;-1.656;2023-10-31T11:26:49;2.67;;;0.93;;
26963;SDS011;14521;48.148;-1.656;2023-10-31T11:30:26;1.92;;;0.50;;
26963;SDS011;14521;48.148;-1.656;2023-10-31T11:33:50;4.28;;;0.70;;
26963;SDS011;14521;48.148;-1.656;2023-10-31T11:37:23;1.60;;;0.73;;
26963;SDS011;14521;48.148;-1.656;2023-10-31T11:40:57;2.20;;;0.90;;
26963;SDS011;14521;48.148;-1.656;2023-10-31T11:44:27;1.67;;;0.73;;
26963;SDS011;14521;48.148;-1.656;2023-10-31T11:47:50;2.38;;;0.73;;
26963;SDS011;14521;48.148;-1.656;2023-10-31T11:51:13;1.27;;;0.63;;
26963;SDS011;14521;48.148;-1.656;2023-10-31T11:54:35;1.98;;;0.70;;
26963;SDS011;14521;48.148;-1.656;2023-10-31T11:57:58;1.48;;;0.90;;
26963;SDS011;14521;48.148;-1.656;2023-10-31T12:01:20;3.17;;;0.57;;
26963;SDS011;14521;48.148;-1.656;2023-10-31T12:04:42;2.63;;;0.65;;
26963;SDS011;14521;48.148;-1.656;2023-10-31T12:08:04;2.58;;;0.68;;
26963;SDS011;14521;48.148;-1.656;2023-10-31T12:11:27;2.22;;;0.60;;
26963;SDS011;14521;48.148;-1.656;2023-10-31T12:14:50;2.47;;;0.90;;
26963;SDS011;14521;48.148;-1.656;2023-10-31T12:18:12;2.25;;;0.55;;
26963;SDS011;14521;48.148;-1.656;2023-10-31T12:21:46;1.45;;;0.63;;
26963;SDS011;14521;48.148;-1.656;2023-10-31T12:25:11;1.40;;;0.35;;
26963;SDS011;14521;48.148;-1.656;2023-10-31T12:28:33;0.52;;;0.40;;
26963;SDS011;14521;48.148;-1.656;2023-10-31T12:31:55;2.45;;;0.40;;
26963;SDS011;14521;48.148;-1.656;2023-10-31T12:35:20;3.03;;;0.70;;
26963;SDS011;14521;48.148;-1.656;2023-10-31T12:38:43;4.03;;;1.38;;
26963;SDS011;14521;48.148;-1.656;2023-10-31T12:42:08;2.95;;;0.93;;
26963;SDS011;14521;48.148;-1.656;2023-10-31T12:45:31;3.72;;;1.27;;
26963;SDS011;14521;48.148;-1.656;2023-10-31T12:48:53;8.52;;;1.10;;
26963;SDS011;14521;48.148;-1.656;2023-10-31T12:52:15;3.22;;;0.98;;
26963;SDS011;14521;48.148;-1.656;2023-10-31T12:55:39;6.53;;;1.38;;
26963;SDS011;14521;48.148;-1.656;2023-10-31T12:59:02;2.83;;;0.70;;
26963;SDS011;14521;48.148;-1.656;2023-10-31T13:02:24;3.65;;;0.80;;
26963;SDS011;14521;48.148;-1.656;2023-10-31T13:05:47;5.15;;;0.82;;
26963;SDS011;14521;48.148;-1.656;2023-10-31T13:09:09;4.95;;;0.85;;
26963;SDS011;14521;48.148;-1.656;2023-10-31T13:12:34;5.68;;;0.98;;
26963;SDS011;14521;48.148;-1.656;2023-10-31T13:15:56;1.80;;;0.80;;
26963;SDS011;14521;48.148;-1.656;2023-10-31T13:19:18;4.65;;;1.00;;
26963;SDS011;14521;48.148;-1.656;2023-10-31T13:22:41;3.47;;;0.73;;
26963;SDS011;14521;48.148;-1.656;2023-10-31T13:26:04;2.40;;;0.80;;
26963;SDS011;14521;48.148;-1.656;2023-10-31T13:29:26;3.42;;;0.65;;
26963;SDS011;14521;48.148;-1.656;2023-10-31T13:32:49;7.13;;;1.00;;
26963;SDS011;14521;48.148;-1.656;2023-10-31T13:36:11;1.70;;;0.50;;
26963;SDS011;14521;48.148;-1.656;2023-10-31T13:39:34;7.22;;;1.70;;
26963;SDS011;14521;48.148;-1.656;2023-10-31T13:42:56;4.32;;;0.73;;
26963;SDS011;14521;48.148;-1.656;2023-10-31T13:46:18;2.28;;;0.55;;
26963;SDS011;14521;48.148;-1.656;2023-10-31T13:49:40;6.65;;;0.88;;
26963;SDS011;14521;48.148;-1.656;2023-10-31T13:53:03;3.13;;;0.77;;
26963;SDS011;14521;48.148;-1.656;2023-10-31T13:56:27;3.58;;;0.75;;
26963;SDS011;14521;48.148;-1.656;2023-10-31T13:59:50;2.55;;;0.68;;
26963;SDS011;14521;48.148;-1.656;2023-10-31T14:03:12;6.80;;;1.10;;
26963;SDS011;14521;48.148;-1.656;2023-10-31T14:06:35;4.20;;;1.05;;
26963;SDS011;14521;48.148;-1.656;2023-10-31T14:09:59;2.92;;;0.82;;
26963;SDS011;14521;48.148;-1.656;2023-10-31T14:13:21;6.78;;;1.27;;
26963;SDS011;14521;48.148;-1.656;2023-10-31T14:16:43;8.02;;;1.08;;
26963;SDS011;14521;48.148;-1.656;2023-10-31T14:20:06;3.25;;;0.73;;
26963;SDS011;14521;48.148;-1.656;2023-10-31T14:23:29;4.60;;;0.90;;
26963;SDS011;14521;48.148;-1.656;2023-10-31T14:26:53;2.05;;;0.55;;
26963;SDS011;14521;48.148;-1.656;2023-10-31T14:30:15;4.30;;;0.88;;
26963;SDS011;14521;48.148;-1.656;2023-10-31T14:33:37;4.63;;;0.85;;
26963;SDS011;14521;48.148;-1.656;2023-10-31T14:37:00;8.10;;;1.25;;
26963;SDS011;14521;48.148;-1.656;2023-10-31T14:40:22;3.45;;;0.80;;
26963;SDS011;14521;48.148;-1.656;2023-10-31T14:43:44;7.65;;;0.80;;
26963;SDS011;14521;48.148;-1.656;2023-10-31T14:47:07;2.40;;;0.70;;
26963;SDS011;14521;48.148;-1.656;2023-10-31T14:50:29;8.13;;;0.90;;
26963;SDS011;14521;48.148;-1.656;2023-10-31T14:53:51;3.42;;;0.63;;
26963;SDS011;14521;48.148;-1.656;2023-10-31T14:57:14;4.90;;;1.02;;
26963;SDS011;14521;48.148;-1.656;2023-10-31T15:00:37;4.22;;;1.00;;
26963;SDS011;14521;48.148;-1.656;2023-10-31T15:03:59;3.58;;;1.00;;
26963;SDS011;14521;48.148;-1.656;2023-10-31T15:07:22;3.92;;;1.10;;
26963;SDS011;14521;48.148;-1.656;2023-10-31T15:10:44;4.15;;;0.98;;
26963;SDS011;14521;48.148;-1.656;2023-10-31T15:14:06;2.45;;;0.80;;
26963;SDS011;14521;48.148;-1.656;2023-10-31T15:17:28;4.18;;;0.80;;
26963;SDS011;14521;48.148;-1.656;2023-10-31T15:20:51;5.05;;;0.98;;
26963;SDS011;14521;48.148;-1.656;2023-10-31T15:24:16;6.78;;;0.93;;
26963;SDS011;14521;48.148;-1.656;2023-10-31T15:27:38;4.03;;;0.82;;
26963;SDS011;14521;48.148;-1.656;2023-10-31T15:31:01;4.35;;;0.57;;
26963;SDS011;14521;48.148;-1.656;2023-10-31T15:34:24;4.53;;;1.08;;
26963;SDS011;14521;48.148;-1.656;2023-10-31T15:37:46;4.50;;;1.08;;
26963;SDS011;14521;48.148;-1.656;2023-10-31T15:41:09;5.38;;;0.90;;
26963;SDS011;14521;48.148;-1.656;2023-10-31T15:44:38;3.63;;;0.50;;
26963;SDS011;14521;48.148;-1.656;2023-10-31T15:48:01;2.75;;;0.63;;
26963;SDS011;14521;48.148;-1.656;2023-10-31T15:51:24;3.17;;;0.73;;
26963;SDS011;14521;48.148;-1.656;2023-10-31T15:54:46;4.20;;;0.85;;
26963;SDS011;14521;48.148;-1.656;2023-10-31T15:58:08;2.72;;;0.80;;
26963;SDS011;14521;48.148;-1.656;2023-10-31T16:01:30;2.30;;;0.60;;
26963;SDS011;14521;48.148;-1.656;2023-10-31T16:04:53;2.10;;;0.80;;
26963;SDS011;14521;48.148;-1.656;2023-10-31T16:08:15;4.82;;;0.57;;
26963;SDS011;14521;48.148;-1.656;2023-10-31T16:11:37;4.07;;;0.80;;
26963;SDS011;14521;48.148;-1.656;2023-10-31T16:15:00;1.63;;;0.47;;
26963;SDS011;14521;48.148;-1.656;2023-10-31T16:18:23;2.65;;;0.77;;
26963;SDS011;14521;48.148;-1.656;2023-10-31T16:21:46;3.78;;;0.73;;
26963;SDS011;14521;48.148;-1.656;2023-10-31T16:25:09;3.53;;;0.90;;
26963;SDS011;14521;48.148;-1.656;2023-10-31T16:28:31;2.90;;;1.13;;
26963;SDS011;14521;48.148;-1.656;2023-10-31T16:31:55;4.88;;;0.70;;
26963;SDS011;14521;48.148;-1.656;2023-10-31T16:35:17;2.97;;;0.80;;
26963;SDS011;14521;48.148;-1.656;2023-10-31T16:38:39;4.97;;;1.00;;
26963;SDS011;14521;48.148;-1.656;2023-10-31T16:42:02;2.20;;;0.68;;
26963;SDS011;14521;48.148;-1.656;2023-10-31T16:45:24;6.07;;;1.02;;
26963;SDS011;14521;48.148;-1.656;2023-10-31T16:48:46;4.82;;;0.95;;
26963;SDS011;14521;48.148;-1.656;2023-10-31T16:52:09;2.15;;;0.60;;
26963;SDS011;14521;48.148;-1.656;2023-10-31T16:55:32;1.45;;;0.60;;
26963;SDS011;14521;48.148;-1.656;2023-10-31T16:58:55;2.03;;;0.80;;
26963;SDS011;14521;48.148;-1.656;2023-10-31T17:02:17;1.85;;;0.60;;
26963;SDS011;14521;48.148;-1.656;2023-10-31T17:05:40;2.05;;;0.73;;
26963;SDS011;14521;48.148;-1.656;2023-10-31T17:09:02;3.63;;;0.80;;
26963;SDS011;14521;48.148;-1.656;2023-10-31T17:12:25;3.22;;;0.80;;
26963;SDS011;14521;48.148;-1.656;2023-10-31T17:15:47;3.17;;;0.50;;
26963;SDS011;14521;48.148;-1.656;2023-10-31T17:19:10;3.33;;;0.88;;
26963;SDS011;14521;48.148;-1.656;2023-10-31T17:22:32;3.72;;;0.82;;
26963;SDS011;14521;48.148;-1.656;2023-10-31T17:25:57;3.67;;;0.70;;
26963;SDS011;14521;48.148;-1.656;2023-10-31T17:29:20;6.97;;;1.15;;
26963;SDS011;14521;48.148;-1.656;2023-10-31T17:32:42;2.33;;;0.68;;
26963;SDS011;14521;48.148;-1.656;2023-10-31T17:36:07;1.80;;;0.73;;
26963;SDS011;14521;48.148;-1.656;2023-10-31T17:42:52;5.05;;;1.05;;
26963;SDS011;14521;48.148;-1.656;2023-10-31T17:46:15;4.18;;;0.82;;
26963;SDS011;14521;48.148;-1.656;2023-10-31T17:49:37;5.60;;;0.80;;
26963;SDS011;14521;48.148;-1.656;2023-10-31T17:52:59;2.97;;;1.05;;
26963;SDS011;14521;48.148;-1.656;2023-10-31T17:56:22;3.63;;;0.63;;
26963;SDS011;14521;48.148;-1.656;2023-10-31T17:59:45;5.97;;;1.00;;
26963;SDS011;14521;48.148;-1.656;2023-10-31T18:03:08;8.10;;;2.50;;
26963;SDS011;14521;48.148;-1.656;2023-10-31T18:06:30;12.25;;;2.35;;
26963;SDS011;14521;48.148;-1.656;2023-10-31T18:09:52;9.93;;;2.13;;
26963;SDS011;14521;48.148;-1.656;2023-10-31T18:13:15;13.75;;;2.45;;
26963;SDS011;14521;48.148;-1.656;2023-10-31T18:16:37;10.25;;;2.22;;
26963;SDS011;14521;48.148;-1.656;2023-10-31T18:19:59;11.25;;;1.90;;
26963;SDS011;14521;48.148;-1.656;2023-10-31T18:23:22;12.85;;;1.83;;
26963;SDS011;14521;48.148;-1.656;2023-10-31T18:26:44;6.10;;;1.90;;
26963;SDS011;14521;48.148;-1.656;2023-10-31T18:30:07;9.15;;;1.63;;
26963;SDS011;14521;48.148;-1.656;2023-10-31T18:33:30;4.78;;;1.58;;
26963;SDS011;14521;48.148;-1.656;2023-10-31T18:36:55;5.95;;;1.50;;
26963;SDS011;14521;48.148;-1.656;2023-10-31T18:40:18;7.63;;;1.73;;
26963;SDS011;14521;48.148;-1.656;2023-10-31T18:43:41;5.95;;;1.70;;
26963;SDS011;14521;48.148;-1.656;2023-10-31T18:47:23;6.90;;;1.58;;
26963;SDS011;14521;48.148;-1.656;2023-10-31T18:50:47;4.90;;;1.35;;
26963;SDS011;14521;48.148;-1.656;2023-10-31T18:54:10;6.53;;;1.75;;
26963;SDS011;14521;48.148;-1.656;2023-10-31T18:57:33;8.23;;;1.60;;
26963;SDS011;14521;48.148;-1.656;2023-10-31T19:00:55;7.80;;;1.75;;
26963;SDS011;14521;48.148;-1.656;2023-10-31T19:04:17;5.60;;;1.50;;
26963;SDS011;14521;48.148;-1.656;2023-10-31T19:07:40;5.18;;;1.25;;
26963;SDS011;14521;48.148;-1.656;2023-10-31T19:11:02;11.63;;;1.73;;
26963;SDS011;14521;48.148;-1.656;2023-10-31T19:14:27;3.28;;;0.90;;
26963;SDS011;14521;48.148;-1.656;2023-10-31T19:17:51;6.23;;;1.13;;
26963;SDS011;14521;48.148;-1.656;2023-10-31T19:21:14;8.38;;;1.27;;
26963;SDS011;14521;48.148;-1.656;2023-10-31T19:24:37;3.22;;;1.15;;
26963;SDS011;14521;48.148;-1.656;2023-10-31T19:28:00;4.38;;;1.10;;
26963;SDS011;14521;48.148;-1.656;2023-10-31T19:31:23;2.63;;;1.10;;
26963;SDS011;14521;48.148;-1.656;2023-10-31T19:34:45;4.80;;;1.80;;
26963;SDS011;14521;48.148;-1.656;2023-10-31T19:38:07;2.33;;;1.00;;
26963;SDS011;14521;48.148;-1.656;2023-10-31T19:41:31;7.28;;;1.30;;
26963;SDS011;14521;48.148;-1.656;2023-10-31T19:44:54;9.85;;;1.40;;
26963;SDS011;14521;48.148;-1.656;2023-10-31T19:48:16;3.95;;;1.20;;
26963;SDS011;14521;48.148;-1.656;2023-10-31T19:51:39;5.70;;;1.63;;
26963;SDS011;14521;48.148;-1.656;2023-10-31T19:55:01;4.97;;;1.08;;
26963;SDS011;14521;48.148;-1.656;2023-10-31T19:58:23;2.88;;;1.10;;
26963;SDS011;14521;48.148;-1.656;2023-10-31T20:01:46;6.15;;;1.20;;
26963;SDS011;14521;48.148;-1.656;2023-10-31T20:05:09;4.60;;;1.80;;
26963;SDS011;14521;48.148;-1.656;2023-10-31T20:08:31;7.05;;;1.20;;
26963;SDS011;14521;48.148;-1.656;2023-10-31T20:11:54;5.00;;;1.42;;